This is the latest recevied weather packets stored in our database for station/object SR9NSK-1. If no packets are shown the sender has not sent any weather packets the latest 1 day(s).
| Time | Temp. | Humidity | Pressure | Rain* | Wind** | Luminosity | Snow |
|---|---|---|---|---|---|---|---|
| 1836274817 | 17.22° C | 72% | 886.2 hPa | - | 1.34 m/s, 190° | - | - |
| 1836274695 | 17.22° C | 72% | 886.2 hPa | - | 1.34 m/s, 190° | - | - |
| 1836274575 | 17.22° C | 72% | 886.2 hPa | - | 1.34 m/s, 191° | - | - |
| 1836274546 | 16.67° C | 71% | 886.1 hPa | - | 1.79 m/s, 195° | - | - |
| 1836274454 | 17.22° C | 72% | 886.2 hPa | - | 1.34 m/s, 196° | - | - |
| 1836274426 | 16.67° C | 72% | 886.1 hPa | - | 1.79 m/s, 186° | - | - |
| 1836274334 | 17.22° C | 72% | 886.2 hPa | - | 1.34 m/s, 201° | - | - |
| 1836274306 | 17.22° C | 72% | 886.2 hPa | - | 1.34 m/s, 178° | - | - |
| 1836274214 | 17.22° C | 72% | 886.2 hPa | - | 1.34 m/s, 207° | - | - |
| 1836274187 | 17.22° C | 72% | 886.1 hPa | - | 1.34 m/s, 184° | - | - |
| 1836274094 | 17.22° C | 72% | 886.2 hPa | - | 1.34 m/s, 208° | - | - |
| 1836273974 | 17.78° C | 72% | 886.2 hPa | - | 1.34 m/s, 207° | - | - |
| 1778023539 | 10° C | 54% | 867.8 hPa | - | 7.6 m/s, 129° | - | - |
| 1778023419 | 10° C | 54% | 867.9 hPa | - | 8.05 m/s, 135° | - | - |
| 1778023299 | 10° C | 54% | 867.9 hPa | - | 6.26 m/s, 128° | - | - |
| 1778023058 | 10° C | 53% | 868.1 hPa | - | 6.26 m/s, 137° | - | - |
| 1778022936 | 10° C | 53% | 868 hPa | - | 6.71 m/s, 124° | - | - |
| 1778022814 | 10° C | 53% | 868 hPa | - | 6.26 m/s, 127° | - | - |
| 1778022694 | 10° C | 53% | 868 hPa | - | 6.26 m/s, 128° | - | - |
| 1778022575 | 10° C | 53% | 868 hPa | - | 6.26 m/s, 133° | - | - |
| 1778022455 | 10° C | 53% | 868.1 hPa | - | 5.81 m/s, 119° | - | - |
| 1778022335 | 10° C | 53% | 868.1 hPa | - | 7.6 m/s, 137° | - | - |
| 1778022215 | 10° C | 53% | 868 hPa | - | 5.81 m/s, 121° | - | - |
| 1778022095 | 10° C | 53% | 868 hPa | - | 3.58 m/s, 143° | - | - |
| 1778021974 | 10° C | 53% | 868 hPa | - | 4.92 m/s, 134° | - | - |
* Rain since midnight (hover to see other rain measurements)
** Current wind speed in m/s (hover to see current wind gust speed)